Time;durP1;ratioP1;P1;durP2;ratioP2;P2;SDS_P1;SDS_P2;PMS_P1;PMS_P2;Temp;Humidity;BMP_temperature;BMP_pressure;BME280_temperature;BME280_humidity;BME280_pressure;Samples;Min_cycle;Max_cycle;Signal;HPM_P1;HPM_P2
2023/12/17 00:01:25;;;;;;;9.20;7.97;;;;;;;1.62;65.82;96849.75;4990726;28;20204;-75
2023/12/17 00:03:53;;;;;;;9.40;8.40;;;;;;;1.42;65.15;96843.50;4984128;28;20321;-74
2023/12/17 00:06:19;;;;;;;8.93;7.57;;;;;;;1.46;65.03;96839.88;4974163;28;20240;-73
2023/12/17 00:08:45;;;;;;;9.63;8.03;;;;;;;1.46;65.44;96839.88;4973507;28;20261;-74
2023/12/17 00:11:10;;;;;;;8.63;7.80;;;;;;;1.40;64.91;96852.22;4988685;28;20187;-74
2023/12/17 00:13:36;;;;;;;9.17;8.23;;;;;;;1.55;65.26;96851.69;4991114;28;20194;-73
2023/12/17 00:16:03;;;;;;;9.20;8.10;;;;;;;1.52;64.96;96852.66;4984938;28;20243;-71
2023/12/17 00:18:28;;;;;;;9.10;8.17;;;;;;;1.42;65.29;96866.84;4971165;28;20233;-72
2023/12/17 00:20:54;;;;;;;11.07;8.40;;;;;;;1.50;65.17;96867.41;4981931;28;20306;-75
2023/12/17 00:23:19;;;;;;;8.53;7.40;;;;;;;1.39;65.22;96866.06;4982966;28;20230;-73
2023/12/17 00:25:45;;;;;;;9.13;8.07;;;;;;;1.33;65.37;96870.53;4982802;28;20203;-71
2023/12/17 00:28:10;;;;;;;9.77;8.50;;;;;;;1.32;65.38;96861.09;4985602;28;20215;-73
2023/12/17 00:30:36;;;;;;;10.17;8.33;;;;;;;1.43;65.38;96876.28;4987083;28;20244;-73
2023/12/17 00:33:01;;;;;;;9.43;8.43;;;;;;;1.32;65.67;96884.41;4983290;28;20231;-73
2023/12/17 00:35:27;;;;;;;10.50;8.90;;;;;;;1.37;65.36;96878.25;4990323;28;20219;-76
2023/12/17 00:37:52;;;;;;;10.33;8.57;;;;;;;1.34;65.34;96889.56;4986439;28;20283;-74
2023/12/17 00:40:17;;;;;;;10.73;9.40;;;;;;;1.29;65.99;96881.09;4986735;28;20305;-74
2023/12/17 00:42:43;;;;;;;8.53;7.73;;;;;;;1.38;65.27;96879.94;4985765;28;20319;-73
2023/12/17 00:45:09;;;;;;;9.87;8.50;;;;;;;1.40;65.26;96888.50;4982489;28;20219;-73
2023/12/17 00:47:43;;;;;;;9.37;8.00;;;;;;;1.30;65.54;96891.38;4983445;28;20229;-74
2023/12/17 00:50:09;;;;;;;9.90;8.87;;;;;;;1.33;65.16;96893.88;4986348;28;20256;-70
2023/12/17 00:52:34;;;;;;;8.83;7.93;;;;;;;1.27;65.50;96886.31;4988856;28;20194;-73
2023/12/17 00:55:00;;;;;;;9.63;8.47;;;;;;;1.29;65.23;96894.88;4993682;28;20320;-74
2023/12/17 00:57:25;;;;;;;10.53;9.23;;;;;;;1.32;64.87;96886.16;4989314;28;20238;-74
2023/12/17 00:59:51;;;;;;;10.93;9.83;;;;;;;1.20;65.54;96887.38;4983402;28;20223;-74
2023/12/17 01:02:16;;;;;;;12.07;9.83;;;;;;;1.25;65.27;96877.72;4986276;28;20227;-74
2023/12/17 01:04:42;;;;;;;12.10;9.90;;;;;;;1.25;65.71;96887.25;4988410;28;20194;-74
2023/12/17 01:07:07;;;;;;;11.27;9.63;;;;;;;1.21;66.10;96886.50;4988294;28;20259;-74
2023/12/17 01:09:33;;;;;;;14.57;10.27;;;;;;;1.24;66.04;96883.81;4986543;28;20246;-74
2023/12/17 01:12:02;;;;;;;11.77;10.03;;;;;;;1.30;65.50;96877.59;4988815;28;20219;-74
2023/12/17 01:14:32;;;;;;;12.30;10.57;;;;;;;1.20;65.31;96881.38;4979029;28;20251;-74
2023/12/17 01:16:57;;;;;;;11.50;9.70;;;;;;;1.10;65.67;96886.84;4993441;28;20209;-74
2023/12/17 01:19:23;;;;;;;11.70;10.47;;;;;;;1.21;65.86;96883.91;4996777;28;20183;-74
2023/12/17 01:21:48;;;;;;;11.37;9.97;;;;;;;1.20;65.52;96884.78;4985424;28;20297;-74
2023/12/17 01:24:14;;;;;;;10.83;9.70;;;;;;;1.20;65.39;96889.13;5003475;28;20227;-74
2023/12/17 01:26:39;;;;;;;11.37;10.17;;;;;;;1.17;65.65;96886.66;4989552;28;20219;-73
2023/12/17 01:29:04;;;;;;;11.80;10.47;;;;;;;1.10;65.84;96889.44;4992054;28;20183;-73
2023/12/17 01:31:30;;;;;;;12.80;10.23;;;;;;;1.07;65.62;96896.47;4986394;28;20270;-73
2023/12/17 01:33:56;;;;;;;10.87;9.60;;;;;;;1.08;65.98;96904.19;4985172;28;20222;-73
2023/12/17 01:36:21;;;;;;;12.30;10.07;;;;;;;1.18;65.88;96899.56;4987978;28;20230;-73
2023/12/17 01:38:47;;;;;;;13.80;11.20;;;;;;;1.14;65.99;96897.97;4980250;28;20246;-73
2023/12/17 01:41:12;;;;;;;11.67;10.37;;;;;;;1.16;66.14;96903.94;4981909;28;20562;-72
2023/12/17 01:43:38;;;;;;;11.57;10.23;;;;;;;1.01;66.32;96901.81;4985741;28;20223;-72
2023/12/17 01:46:04;;;;;;;12.10;10.47;;;;;;;0.95;66.19;96910.63;4989059;28;20223;-73
2023/12/17 01:48:30;;;;;;;12.40;10.53;;;;;;;0.86;66.37;96908.34;4989483;28;20223;-72
2023/12/17 01:50:56;;;;;;;12.27;10.47;;;;;;;0.88;66.28;96912.56;4990579;28;20222;-72
2023/12/17 01:53:22;;;;;;;11.43;9.90;;;;;;;0.86;66.73;96904.00;4984282;28;20215;-73
2023/12/17 01:55:49;;;;;;;13.10;10.73;;;;;;;0.76;66.74;96918.13;4986792;28;20207;-72
2023/12/17 01:58:16;;;;;;;13.87;11.57;;;;;;;0.71;67.24;96913.97;4983710;28;20311;-73
2023/12/17 02:00:42;;;;;;;12.80;10.50;;;;;;;0.74;67.17;96904.34;4991740;28;20306;-73
2023/12/17 02:03:08;;;;;;;14.37;11.30;;;;;;;0.78;66.84;96903.38;4991057;28;20250;-73
2023/12/17 02:05:34;;;;;;;11.23;10.03;;;;;;;0.66;66.97;96903.75;4972028;28;20317;-72
2023/12/17 02:08:01;;;;;;;11.63;10.43;;;;;;;0.66;67.14;96906.31;4982618;28;20191;-73
2023/12/17 02:10:27;;;;;;;11.37;10.17;;;;;;;0.71;66.98;96898.44;4989677;28;20188;-73
2023/12/17 02:12:52;;;;;;;12.07;10.73;;;;;;;0.68;66.49;96899.38;4986885;28;20219;-73
2023/12/17 02:15:18;;;;;;;10.73;9.30;;;;;;;0.69;66.72;96889.84;4970853;28;20283;-73
2023/12/17 02:17:44;;;;;;;10.50;9.33;;;;;;;0.73;66.15;96889.72;4975476;28;20238;-74
2023/12/17 02:20:09;;;;;;;10.50;9.40;;;;;;;0.72;66.53;96893.19;4982246;28;20219;-73
2023/12/17 02:22:36;;;;;;;10.60;8.87;;;;;;;0.78;66.28;96887.84;4980457;28;20251;-73
2023/12/17 02:25:02;;;;;;;10.00;8.43;;;;;;;0.76;66.05;96888.78;4977371;28;20294;-73
2023/12/17 02:27:27;;;;;;;9.70;8.00;;;;;;;0.82;65.90;96881.66;4981460;28;20313;-74
2023/12/17 02:29:54;;;;;;;11.07;8.87;;;;;;;0.80;66.03;96888.66;4988286;28;20227;-73
2023/12/17 02:32:21;;;;;;;9.63;8.37;;;;;;;0.77;66.21;96891.31;4982110;28;20216;-73
2023/12/17 02:34:47;;;;;;;9.47;8.47;;;;;;;0.70;66.13;96891.56;4982576;28;20180;-74
2023/12/17 02:37:12;;;;;;;9.17;8.20;;;;;;;0.70;66.33;96887.22;4962428;28;20414;-73
2023/12/17 02:39:38;;;;;;;9.60;8.60;;;;;;;0.76;66.27;96887.03;4973495;28;20336;-73
2023/12/17 02:42:04;;;;;;;8.47;7.53;;;;;;;0.64;65.83;96887.38;4978707;28;20224;-74
2023/12/17 02:44:29;;;;;;;10.83;8.57;;;;;;;0.62;66.39;96894.38;4975560;28;20237;-73
2023/12/17 02:46:55;;;;;;;9.13;8.13;;;;;;;0.65;66.14;96889.94;4966451;28;20191;-74
2023/12/17 02:49:20;;;;;;;10.90;9.20;;;;;;;0.55;66.43;96896.28;4974685;28;20236;-73
2023/12/17 02:51:46;;;;;;;9.63;8.63;;;;;;;0.54;66.58;96899.78;4987363;28;20231;-74
2023/12/17 02:54:11;;;;;;;9.83;8.13;;;;;;;0.51;66.65;96907.63;4980912;28;20262;-74
2023/12/17 02:56:41;;;;;;;9.93;7.90;;;;;;;0.40;67.06;96888.97;4980549;28;20247;-74
2023/12/17 02:59:11;;;;;;;9.37;7.63;;;;;;;0.48;66.67;96904.28;4986133;28;20255;-74
2023/12/17 03:01:37;;;;;;;10.53;8.30;;;;;;;0.52;66.59;96893.78;4983062;28;20263;-74
2023/12/17 03:04:03;;;;;;;8.77;7.50;;;;;;;0.36;66.68;96897.72;4979915;28;20228;-74
2023/12/17 03:06:28;;;;;;;8.57;7.63;;;;;;;0.45;66.46;96894.84;4984856;28;20318;-73
2023/12/17 03:08:54;;;;;;;8.40;7.50;;;;;;;0.35;66.80;96891.69;4986206;28;20299;-73
2023/12/17 03:11:19;;;;;;;8.73;7.33;;;;;;;0.47;66.42;96900.00;4984560;28;20382;-73
2023/12/17 03:13:46;;;;;;;7.93;7.13;;;;;;;0.52;66.18;96900.72;4977795;28;20215;-73
2023/12/17 03:16:11;;;;;;;9.83;7.77;;;;;;;0.56;66.18;96900.59;4965072;28;20243;-73
2023/12/17 03:18:37;;;;;;;8.77;6.77;;;;;;;0.61;65.67;96908.19;4973250;28;20235;-73
2023/12/17 03:21:05;;;;;;;7.90;6.80;;;;;;;0.46;66.30;96898.31;4971270;28;20228;-73
2023/12/17 03:23:30;;;;;;;8.47;6.80;;;;;;;0.43;66.21;96897.50;4975071;28;20228;-72
2023/12/17 03:25:55;;;;;;;8.63;7.27;;;;;;;0.44;66.46;96896.59;4960282;28;20189;-73
2023/12/17 03:28:21;;;;;;;8.33;6.87;;;;;;;0.48;66.32;96892.16;4984744;28;20439;-73
2023/12/17 03:30:46;;;;;;;9.33;6.53;;;;;;;0.45;66.15;96897.44;4984949;28;20224;-72
2023/12/17 03:33:12;;;;;;;8.27;5.73;;;;;;;0.38;66.58;96907.13;4985921;28;20224;-73
2023/12/17 03:35:37;;;;;;;9.73;6.67;;;;;;;0.31;66.63;96905.59;4981282;28;20228;-73
2023/12/17 03:38:06;;;;;;;8.17;6.87;;;;;;;0.38;66.81;96916.63;4982883;28;20207;-73
2023/12/17 03:40:32;;;;;;;8.17;6.40;;;;;;;0.44;66.39;96911.28;4983635;28;20176;-74
2023/12/17 03:42:58;;;;;;;8.17;6.80;;;;;;;0.31;66.74;96910.78;4965922;28;20300;-74
2023/12/17 03:45:24;;;;;;;8.53;7.27;;;;;;;0.33;66.53;96919.34;4969024;28;20311;-73
2023/12/17 03:47:49;;;;;;;8.37;6.47;;;;;;;0.48;66.32;96912.03;4984890;28;20236;-73
2023/12/17 03:50:16;;;;;;;7.37;6.33;;;;;;;0.49;66.25;96912.00;4984486;28;20199;-73
2023/12/17 03:52:43;;;;;;;7.97;6.97;;;;;;;0.43;66.45;96915.63;4986640;28;20187;-73
2023/12/17 03:55:08;;;;;;;8.40;6.93;;;;;;;0.35;67.06;96924.50;4982849;28;20227;-73
2023/12/17 03:57:34;;;;;;;7.73;6.70;;;;;;;0.35;66.98;96927.09;4968346;28;20243;-74
2023/12/17 04:00:01;;;;;;;8.00;6.93;;;;;;;0.26;67.31;96933.34;4968277;28;20318;-73
2023/12/17 04:02:27;;;;;;;7.43;6.63;;;;;;;0.23;67.23;96938.59;4981364;28;20220;-73
2023/12/17 04:04:52;;;;;;;7.37;6.63;;;;;;;0.37;67.26;96935.63;4983972;28;20188;-72
2023/12/17 04:07:18;;;;;;;8.77;6.50;;;;;;;0.47;66.92;96929.31;5010654;28;20234;-73
2023/12/17 04:09:43;;;;;;;6.77;6.10;;;;;;;0.43;67.14;96938.91;4972876;28;20290;-73
2023/12/17 04:12:09;;;;;;;6.87;6.17;;;;;;;0.41;66.72;96937.25;4974767;28;20227;-71
2023/12/17 04:14:34;;;;;;;7.30;6.07;;;;;;;0.16;67.69;96942.22;4991692;28;20231;-72
2023/12/17 04:16:59;;;;;;;7.80;6.17;;;;;;;0.31;67.32;96926.31;4982815;28;20222;-74
2023/12/17 04:19:25;;;;;;;7.00;6.30;;;;;;;0.32;67.03;96942.66;4994687;28;20195;-74
2023/12/17 04:21:50;;;;;;;7.03;5.97;;;;;;;0.36;67.26;96942.56;4995761;28;20261;-73
2023/12/17 04:24:16;;;;;;;7.33;6.13;;;;;;;0.27;67.03;96942.81;4992954;28;20234;-73
2023/12/17 04:26:41;;;;;;;7.83;6.53;;;;;;;0.21;67.49;96950.72;4997949;28;20366;-72
2023/12/17 04:29:07;;;;;;;9.47;7.43;;;;;;;0.25;67.67;96951.50;4986492;28;20209;-73
2023/12/17 04:31:32;;;;;;;8.07;7.00;;;;;;;0.14;67.86;96951.78;5002205;28;20225;-73
2023/12/17 04:33:58;;;;;;;7.53;6.73;;;;;;;0.25;67.87;96954.09;4996077;28;20215;-73
2023/12/17 04:36:24;;;;;;;8.57;7.10;;;;;;;0.14;68.04;96950.06;4991315;28;20238;-74
2023/12/17 04:38:49;;;;;;;6.63;5.83;;;;;;;0.03;68.37;96939.16;4988728;28;20257;-74
2023/12/17 04:41:15;;;;;;;7.07;6.37;;;;;;;0.03;68.29;96946.03;4985998;28;20187;-74
2023/12/17 04:43:40;;;;;;;8.03;6.60;;;;;;;0.08;68.45;96951.94;4989832;28;20239;-75
2023/12/17 04:46:07;;;;;;;8.17;6.97;;;;;;;0.12;68.45;96950.97;4972233;28;20267;-73
2023/12/17 04:48:33;;;;;;;7.97;7.17;;;;;;;0.19;67.76;96950.78;4981247;28;20314;-73
2023/12/17 04:50:58;;;;;;;8.80;7.37;;;;;;;0.21;67.75;96955.91;4994175;28;20301;-73
2023/12/17 04:53:24;;;;;;;9.37;7.20;;;;;;;0.17;67.82;96954.28;4990621;28;20226;-73
2023/12/17 04:55:49;;;;;;;8.67;7.17;;;;;;;0.16;68.22;96968.97;4991266;28;20203;-74
2023/12/17 04:58:15;;;;;;;8.93;7.23;;;;;;;0.12;68.25;96966.50;4984044;28;20223;-73
2023/12/17 05:00:40;;;;;;;7.83;7.03;;;;;;;0.26;68.20;96966.97;5004539;28;20223;-74
2023/12/17 05:03:06;;;;;;;8.10;7.27;;;;;;;0.11;68.36;96959.66;4991566;28;20365;-73
2023/12/17 05:05:31;;;;;;;7.77;6.70;;;;;;;0.11;68.51;96968.25;4980866;28;20243;-74
2023/12/17 05:07:57;;;;;;;8.43;7.57;;;;;;;0.12;68.39;96961.31;4968514;28;20196;-73
2023/12/17 05:10:22;;;;;;;8.33;7.30;;;;;;;0.05;68.64;96967.53;4989682;28;20202;-73
2023/12/17 05:12:48;;;;;;;7.87;7.07;;;;;;;0.06;68.74;96971.84;4970590;28;20228;-74
2023/12/17 05:15:13;;;;;;;7.90;7.10;;;;;;;-0.06;68.84;96976.41;4981804;28;20230;-74
2023/12/17 05:17:39;;;;;;;8.60;7.70;;;;;;;0.03;68.59;96977.06;4986329;28;20235;-74
2023/12/17 05:20:05;;;;;;;8.23;7.00;;;;;;;0.01;68.72;96987.47;4987808;28;20195;-75
2023/12/17 05:22:30;;;;;;;8.07;7.07;;;;;;;0.07;68.79;96989.06;4989875;28;20250;-75
2023/12/17 05:24:56;;;;;;;8.37;7.47;;;;;;;0.13;68.33;96992.31;4994769;28;20223;-73
2023/12/17 05:27:21;;;;;;;8.37;7.47;;;;;;;-0.08;69.27;96985.97;4986368;28;20285;-74
2023/12/17 05:29:47;;;;;;;7.93;6.77;;;;;;;0.07;68.74;96996.81;4980208;28;20247;-74
2023/12/17 05:32:12;;;;;;;8.80;7.90;;;;;;;0.13;68.40;97004.41;4989238;28;20180;-73
2023/12/17 05:34:38;;;;;;;8.57;7.50;;;;;;;-0.10;69.15;97000.69;4983539;28;20183;-74
2023/12/17 05:37:03;;;;;;;8.73;7.90;;;;;;;-0.02;68.79;97003.91;4972402;28;20291;-75
2023/12/17 05:39:29;;;;;;;8.03;7.17;;;;;;;-0.08;69.02;97008.38;4966325;28;20243;-74
2023/12/17 05:41:55;;;;;;;8.13;6.67;;;;;;;-0.16;69.23;97006.00;4982188;28;20257;-74
2023/12/17 05:44:20;;;;;;;8.87;7.97;;;;;;;-0.09;69.21;96996.34;4988563;28;20242;-74
2023/12/17 05:46:45;;;;;;;8.97;7.20;;;;;;;-0.06;68.94;97015.22;4988232;28;20183;-75
2023/12/17 05:49:11;;;;;;;7.93;7.13;;;;;;;-0.09;69.22;97007.53;4989946;28;20239;-74
2023/12/17 05:51:36;;;;;;;8.10;7.30;;;;;;;0.01;69.21;97002.16;4986279;28;20235;-74
2023/12/17 05:54:02;;;;;;;8.80;7.40;;;;;;;-0.08;68.95;97010.97;4987572;28;20222;-75
2023/12/17 05:56:27;;;;;;;8.57;7.57;;;;;;;-0.17;69.31;97006.88;4987361;28;20231;-74
2023/12/17 05:58:53;;;;;;;7.60;6.70;;;;;;;-0.16;69.25;96998.25;4993250;28;20261;-74
2023/12/17 06:01:18;;;;;;;8.57;7.43;;;;;;;-0.08;68.97;97004.09;4990153;28;20232;-73
2023/12/17 06:03:44;;;;;;;7.33;6.63;;;;;;;-0.04;68.76;97008.28;4988062;28;20227;-75
2023/12/17 06:06:10;;;;;;;8.20;7.07;;;;;;;-0.10;69.00;97005.84;4993875;28;20228;-75
2023/12/17 06:08:35;;;;;;;8.00;7.20;;;;;;;-0.17;69.42;97014.63;4988495;28;20223;-74
2023/12/17 06:11:00;;;;;;;8.27;7.30;;;;;;;-0.08;69.17;97006.66;4985992;28;20181;-75
2023/12/17 06:13:26;;;;;;;8.60;7.70;;;;;;;-0.14;68.82;97004.22;4984692;28;20201;-74
2023/12/17 06:15:51;;;;;;;7.87;7.07;;;;;;;-0.09;68.72;97009.28;4972334;28;20322;-74
2023/12/17 06:18:17;;;;;;;7.77;6.80;;;;;;;0.00;68.27;97009.06;4965985;28;20282;-75
2023/12/17 06:20:42;;;;;;;7.43;6.60;;;;;;;0.07;68.21;97009.75;4977655;28;20286;-75
2023/12/17 06:23:10;;;;;;;9.00;6.43;;;;;;;0.05;68.07;96993.41;5004297;28;20207;-74
2023/12/17 06:25:36;;;;;;;7.83;6.97;;;;;;;0.13;67.81;97004.41;4990983;28;20184;-74
2023/12/17 06:28:02;;;;;;;9.03;7.30;;;;;;;0.08;68.36;97008.84;4970884;28;20240;-74
2023/12/17 06:30:27;;;;;;;8.47;7.67;;;;;;;0.12;67.64;97007.88;4967121;28;20308;-74
2023/12/17 06:32:53;;;;;;;6.77;5.97;;;;;;;0.18;67.77;97007.72;4983254;28;20310;-73
2023/12/17 06:35:18;;;;;;;7.63;6.83;;;;;;;0.34;67.30;97018.53;4986570;28;20282;-72
2023/12/17 06:37:43;;;;;;;7.10;6.10;;;;;;;0.35;67.43;97025.41;4988412;28;20183;-72
2023/12/17 06:40:09;;;;;;;8.60;7.40;;;;;;;0.40;67.28;97018.34;4988492;28;20222;-76
2023/12/17 06:42:35;;;;;;;7.97;5.90;;;;;;;0.48;67.42;97026.75;4984320;28;20238;-74
2023/12/17 06:45:01;;;;;;;8.07;6.20;;;;;;;0.28;67.42;97023.88;4989195;28;20231;-76
2023/12/17 06:47:26;;;;;;;7.47;6.17;;;;;;;0.44;67.13;97017.41;4989694;28;20227;-76
2023/12/17 06:49:53;;;;;;;7.97;6.03;;;;;;;0.48;66.82;97023.31;4983267;28;20207;-75
2023/12/17 06:52:19;;;;;;;6.73;5.90;;;;;;;0.51;66.94;97033.59;4990011;28;20287;-76
2023/12/17 06:54:44;;;;;;;9.00;6.93;;;;;;;0.44;66.76;97023.41;4986398;28;20255;-76
2023/12/17 06:57:10;;;;;;;7.17;6.17;;;;;;;0.78;66.50;97027.69;4986175;28;20231;-76
2023/12/17 06:59:35;;;;;;;7.27;6.20;;;;;;;0.85;66.03;97036.97;4981298;28;20219;-77
2023/12/17 07:02:01;;;;;;;7.90;6.43;;;;;;;0.84;66.14;97045.63;4968230;28;20188;-77
2023/12/17 07:04:27;;;;;;;8.40;6.90;;;;;;;0.73;66.08;97041.66;4974786;28;20215;-77
2023/12/17 07:06:52;;;;;;;7.27;6.40;;;;;;;0.84;66.02;97043.03;4966151;28;20243;-78
2023/12/17 07:09:17;;;;;;;7.83;7.00;;;;;;;0.83;65.98;97053.47;4993538;28;20238;-75
2023/12/17 07:11:43;;;;;;;8.40;6.73;;;;;;;0.88;66.33;97051.56;4990634;28;20235;-75
2023/12/17 07:14:08;;;;;;;8.90;6.73;;;;;;;0.85;66.52;97059.41;4991086;28;20185;-77
2023/12/17 07:16:35;;;;;;;7.83;7.03;;;;;;;0.94;66.53;97068.69;4991516;28;20179;-74
2023/12/17 07:19:00;;;;;;;8.13;6.50;;;;;;;1.06;66.07;97068.34;4962962;28;20228;-73
2023/12/17 07:21:26;;;;;;;9.10;7.17;;;;;;;1.13;65.05;97058.66;4972410;28;20325;-73
2023/12/17 07:23:51;;;;;;;8.37;7.03;;;;;;;1.19;65.01;97067.09;4978130;28;20293;-74
2023/12/17 07:26:16;;;;;;;8.00;7.03;;;;;;;1.29;65.15;97050.38;4967116;28;20230;-74
2023/12/17 07:28:42;;;;;;;10.30;7.77;;;;;;;1.26;64.87;97049.63;4991530;28;20190;-72
2023/12/17 07:31:07;;;;;;;9.50;7.80;;;;;;;1.39;64.79;97050.09;4982405;28;20227;-74
2023/12/17 07:33:33;;;;;;;9.40;7.73;;;;;;;1.33;64.94;97039.03;4972522;28;20235;-76
2023/12/17 07:35:58;;;;;;;10.87;7.17;;;;;;;1.51;64.32;97036.78;4979177;28;20227;-73
2023/12/17 07:38:24;;;;;;;8.77;7.23;;;;;;;1.47;64.07;97032.56;4989970;28;20230;-76
2023/12/17 07:40:49;;;;;;;10.10;7.73;;;;;;;1.48;64.42;97035.13;4987335;28;20187;-74
2023/12/17 07:43:15;;;;;;;10.10;7.87;;;;;;;1.44;64.76;97037.84;4963854;28;20228;-75
2023/12/17 07:45:40;;;;;;;9.83;8.13;;;;;;;1.49;65.04;97042.00;4983532;28;20225;-78
2023/12/17 07:48:06;;;;;;;8.70;7.10;;;;;;;1.57;64.84;97046.13;4990209;28;20229;-75
2023/12/17 07:50:31;;;;;;;10.23;8.17;;;;;;;1.51;64.94;97052.34;4984386;28;20254;-74
2023/12/17 07:52:56;;;;;;;10.13;7.60;;;;;;;1.57;64.18;97057.31;4988351;28;20190;-74
2023/12/17 07:55:22;;;;;;;9.53;7.50;;;;;;;1.68;64.12;97055.25;4968559;28;20227;-73
2023/12/17 07:57:48;;;;;;;9.40;7.60;;;;;;;1.66;63.91;97061.41;4979023;28;20223;-71
2023/12/17 08:00:13;;;;;;;8.93;7.67;;;;;;;1.58;64.80;97066.81;4968913;28;20345;-75
2023/12/17 08:02:39;;;;;;;8.97;7.20;;;;;;;1.66;65.19;97072.63;4985069;28;20266;-74
2023/12/17 08:05:05;;;;;;;10.73;8.60;;;;;;;1.72;64.52;97067.25;4976467;28;20231;-74
2023/12/17 08:07:32;;;;;;;9.63;8.13;;;;;;;1.69;64.35;97066.50;4993642;28;20190;-74
2023/12/17 08:09:58;;;;;;;9.33;8.03;;;;;;;1.81;63.87;97071.28;4988636;28;20219;-70
2023/12/17 08:12:23;;;;;;;9.73;8.53;;;;;;;1.66;64.60;97077.81;4992874;28;20246;-75
2023/12/17 08:14:49;;;;;;;10.77;9.00;;;;;;;1.69;64.19;97069.94;4985104;28;20254;-72
2023/12/17 08:17:14;;;;;;;14.07;9.17;;;;;;;1.81;64.09;97081.66;4984842;28;20192;-72
2023/12/17 08:19:40;;;;;;;11.37;8.67;;;;;;;1.86;63.99;97084.97;4989919;28;20191;-71
2023/12/17 08:22:05;;;;;;;11.10;9.13;;;;;;;1.87;63.98;97094.47;4986539;28;20227;-72
2023/12/17 08:24:31;;;;;;;12.43;9.37;;;;;;;1.99;63.76;97088.03;4974882;28;20235;-71
2023/12/17 08:26:59;;;;;;;10.40;8.30;;;;;;;1.94;63.31;97092.50;4991163;28;20223;-72
2023/12/17 08:29:24;;;;;;;10.37;8.80;;;;;;;1.84;64.07;97096.28;4978107;28;20224;-72
2023/12/17 08:31:50;;;;;;;10.07;8.00;;;;;;;1.80;64.32;97089.50;4982580;28;20199;-70
2023/12/17 08:34:15;;;;;;;9.43;8.07;;;;;;;1.97;64.19;97089.81;5003269;28;20246;-71
2023/12/17 08:36:41;;;;;;;10.40;8.53;;;;;;;1.89;64.16;97084.00;5005367;28;20234;-72
2023/12/17 08:39:11;;;;;;;9.43;7.77;;;;;;;1.95;63.86;97084.69;5001706;28;20285;-72
2023/12/17 08:41:38;;;;;;;9.67;7.87;;;;;;;1.80;63.86;97076.53;4982002;28;20231;-73
2023/12/17 08:44:06;;;;;;;9.43;8.13;;;;;;;1.89;63.97;97066.69;4971617;28;20231;-72
2023/12/17 08:46:32;;;;;;;9.73;7.50;;;;;;;1.95;63.77;97066.53;4992130;28;20207;-71
2023/12/17 08:48:58;;;;;;;9.07;7.47;;;;;;;1.88;64.16;97066.75;4982159;28;20223;-72
2023/12/17 08:51:23;;;;;;;9.20;7.63;;;;;;;1.95;63.25;97052.69;4974526;28;20231;-73
2023/12/17 08:53:48;;;;;;;9.70;8.33;;;;;;;2.05;63.44;97048.91;4987180;28;20235;-72
2023/12/17 08:56:14;;;;;;;9.07;7.63;;;;;;;1.95;63.66;97045.78;4984909;28;20191;-72
2023/12/17 08:58:39;;;;;;;9.47;7.70;;;;;;;1.90;63.81;97054.59;4996705;28;20195;-72
2023/12/17 09:01:05;;;;;;;8.83;7.90;;;;;;;2.06;63.45;97044.53;4966967;28;20367;-71
2023/12/17 09:03:30;;;;;;;12.07;8.30;;;;;;;2.24;63.30;97049.13;4973838;28;20231;-71
2023/12/17 09:05:56;;;;;;;9.73;8.73;;;;;;;2.18;63.96;97046.75;4980139;28;20239;-72
2023/12/17 09:08:21;;;;;;;10.53;9.27;;;;;;;1.95;64.17;97044.91;4983076;28;20223;-73
2023/12/17 09:10:47;;;;;;;10.77;8.20;;;;;;;2.13;63.25;97057.28;4989884;28;20285;-72
2023/12/17 09:13:12;;;;;;;8.33;7.33;;;;;;;2.05;63.15;97048.06;4963999;28;20220;-72
2023/12/17 09:15:39;;;;;;;9.20;7.70;;;;;;;2.03;62.78;97055.88;4977888;28;20319;-71
2023/12/17 09:18:05;;;;;;;9.23;8.10;;;;;;;2.05;62.71;97061.03;4989234;28;20231;-74
2023/12/17 09:20:31;;;;;;;11.83;8.80;;;;;;;2.01;63.24;97062.88;4984949;28;20230;-72
2023/12/17 09:22:57;;;;;;;10.63;8.80;;;;;;;2.24;62.80;97063.88;4987346;28;20213;-74
2023/12/17 09:25:23;;;;;;;10.87;8.57;;;;;;;1.98;63.06;97052.59;4989402;28;20184;-71
2023/12/17 09:27:51;;;;;;;10.93;8.43;;;;;;;2.03;62.53;97048.09;4983378;28;20214;-75
2023/12/17 09:30:17;;;;;;;11.07;8.90;;;;;;;2.13;62.22;97049.50;4973089;28;20238;-76
2023/12/17 09:32:44;;;;;;;14.23;8.53;;;;;;;2.08;61.83;97048.78;4978493;28;20228;-73
2023/12/17 09:35:10;;;;;;;9.50;8.40;;;;;;;2.11;62.06;97050.44;4982874;28;20195;-74
2023/12/17 09:37:36;;;;;;;10.23;8.17;;;;;;;1.93;62.77;97041.53;4973683;28;20192;-74
2023/12/17 09:40:02;;;;;;;8.63;7.47;;;;;;;2.18;62.05;97047.59;4973267;28;20238;-74
2023/12/17 09:42:29;;;;;;;9.07;7.23;;;;;;;2.12;62.61;97046.97;4958906;28;20231;-75
2023/12/17 09:44:54;;;;;;;9.17;7.80;;;;;;;2.16;61.76;97051.13;4981510;28;20250;-73
2023/12/17 09:47:20;;;;;;;9.17;7.90;;;;;;;2.25;61.81;97055.19;4978758;28;20258;-71
2023/12/17 09:49:46;;;;;;;9.17;7.47;;;;;;;2.15;61.61;97052.06;4970085;28;20199;-72
2023/12/17 09:52:12;;;;;;;9.07;7.23;;;;;;;2.14;61.64;97039.97;4990414;28;20219;-72
2023/12/17 09:54:39;;;;;;;8.70;7.63;;;;;;;2.03;62.19;97040.31;4987617;28;20238;-71
2023/12/17 09:57:10;;;;;;;9.60;8.27;;;;;;;1.99;62.31;97033.53;4978614;28;20259;-72
2023/12/17 09:59:35;;;;;;;9.13;7.40;;;;;;;2.01;61.96;97034.34;4977120;28;20318;-72
2023/12/17 10:02:01;;;;;;;8.93;7.37;;;;;;;2.11;61.63;97032.28;4988855;28;20273;-73
2023/12/17 10:04:26;;;;;;;8.67;7.43;;;;;;;1.95;62.15;97021.53;4988513;28;20207;-71
2023/12/17 10:06:53;;;;;;;8.23;6.83;;;;;;;1.94;62.23;97018.09;4982912;28;20239;-72
2023/12/17 10:09:18;;;;;;;8.73;7.33;;;;;;;1.91;61.94;97022.56;4984321;28;20239;-77
2023/12/17 10:11:44;;;;;;;9.33;6.93;;;;;;;2.00;62.15;97014.47;4987557;28;20256;-72
2023/12/17 10:14:23;;;;;;;10.13;7.67;;;;;;;2.10;62.03;97017.59;4981755;28;20184;-72
2023/12/17 10:16:51;;;;;;;8.50;7.10;;;;;;;2.24;61.20;97017.16;4981999;28;20218;-75
2023/12/17 10:19:18;;;;;;;9.27;7.53;;;;;;;1.86;62.10;97019.25;4964225;28;20270;-73
2023/12/17 10:21:44;;;;;;;9.03;7.40;;;;;;;1.88;62.01;97014.88;4979763;28;20223;-73
2023/12/17 10:24:10;;;;;;;9.67;7.43;;;;;;;2.04;62.13;97017.81;4973415;28;20242;-76
2023/12/17 10:26:41;;;;;;;8.10;6.67;;;;;;;1.97;61.99;96996.41;4963332;28;20258;-75
2023/12/17 10:29:09;;;;;;;11.03;7.57;;;;;;;1.96;62.22;97005.09;4972726;28;20204;-76
2023/12/17 10:31:37;;;;;;;10.27;8.13;;;;;;;2.14;61.75;96996.72;4987988;28;20190;-78
2023/12/17 10:34:22;;;;;;;9.40;8.00;;;;;;;2.19;61.68;97002.59;4969783;28;20228;-75
2023/12/17 10:36:52;;;;;;;8.90;7.37;;;;;;;2.23;61.73;97005.06;4978545;28;20269;-73
2023/12/17 10:39:19;;;;;;;9.43;7.27;;;;;;;2.13;60.99;96995.00;4986414;28;20302;-72
2023/12/17 10:41:47;;;;;;;9.23;8.03;;;;;;;2.27;61.15;96998.88;4979501;28;20235;-72
2023/12/17 10:44:15;;;;;;;9.07;7.73;;;;;;;2.27;61.33;96999.72;4987244;28;20210;-75
2023/12/17 10:46:42;;;;;;;9.70;7.23;;;;;;;2.20;61.15;96988.69;4988578;28;20299;-75
2023/12/17 10:49:09;;;;;;;9.87;8.27;;;;;;;2.29;61.39;96987.53;4985464;28;20227;-77
2023/12/17 10:51:38;;;;;;;9.83;7.50;;;;;;;2.28;61.35;96997.97;4989366;28;20230;-75
2023/12/17 10:54:05;;;;;;;9.53;7.57;;;;;;;2.41;61.01;96987.13;4985404;28;20219;-78
2023/12/17 10:56:53;;;;;;;11.07;8.13;;;;;;;2.52;60.96;96996.28;4990303;28;20232;-83
2023/12/17 10:59:24;;;;;;;9.13;8.13;;;;;;;2.31;61.63;96993.53;4995140;28;20227;-82
2023/12/17 11:01:53;;;;;;;11.10;8.10;;;;;;;2.49;61.01;96992.03;4994715;28;20605;-79
2023/12/17 11:04:19;;;;;;;10.70;8.40;;;;;;;2.28;61.23;96997.97;4988454;28;20231;-81
2023/12/17 11:06:44;;;;;;;9.77;7.67;;;;;;;2.24;60.51;96986.00;4986150;28;20266;-72
2023/12/17 11:09:10;;;;;;;9.90;8.00;;;;;;;2.27;61.05;96978.09;4991055;28;20223;-73
2023/12/17 11:11:35;;;;;;;9.87;8.17;;;;;;;2.36;61.17;96975.19;4988897;28;20222;-72
2023/12/17 11:14:02;;;;;;;10.77;8.47;;;;;;;2.40;60.96;96963.78;4986114;28;20266;-79
2023/12/17 11:16:29;;;;;;;10.20;9.00;;;;;;;2.23;61.30;96958.34;4985260;28;20179;-73
2023/12/17 11:18:58;;;;;;;10.10;9.10;;;;;;;2.43;60.91;96964.56;4979004;28;20285;-74
2023/12/17 11:21:24;;;;;;;8.93;7.93;;;;;;;2.56;60.02;96959.75;4976853;28;20236;-73
2023/12/17 11:23:51;;;;;;;10.17;7.90;;;;;;;2.58;60.49;96960.53;4978209;28;20304;-73
2023/12/17 11:26:17;;;;;;;9.23;7.33;;;;;;;2.53;60.59;96961.59;4988998;28;20234;-71
2023/12/17 11:28:46;;;;;;;9.10;7.93;;;;;;;2.59;59.86;96941.47;4982288;28;20202;-70
2023/12/17 11:31:12;;;;;;;9.73;7.60;;;;;;;2.64;59.83;96943.88;4993787;28;20223;-79
2023/12/17 11:33:39;;;;;;;10.83;8.07;;;;;;;2.61;60.05;96946.59;4987556;28;20225;-80